CW8593 Gava ES current weather conditions

sailwx.info

Wind from 088 at 3 knots gusting 8

Air temperature 21.7° C
Dewpoint 17.7° C

Last reported at 2014-Oct-25 16:43 UTC.
Time now 2014-Oct-25 17:37 UTC

Location: N 41°18' E 001°60'.
View on Google Maps.

See reports from other nearby stations

  
Tides and Currents Weather Stations Pressure Air Temp Water Temp Dewpoint Dewpoint Depression Visibility Wind Speed Wind Dir Waves Ship Positions
date/time (UTC)wind fromknots sea level pressurealtimeterstation pressurevisibilityair tempwater tempwave heightnotes
2014-Oct-25 16:43 088 3 gusting 8 21.7
2014-Oct-25 16:23 104 1 gusting 6 23.3
2014-Oct-25 16:13 207 0 gusting 2 23.9
2014-Oct-25 15:53 209 0 gusting 2 24.4
2014-Oct-25 15:43 207 0 gusting 6 24.4
2014-Oct-25 15:33 199 3 gusting 6 24.4
2014-Oct-25 15:13 196 5 gusting 11 23.9
2014-Oct-25 14:43 211 7 gusting 14 23.9
2014-Oct-25 13:23 181 2 gusting 7 25.0
2014-Oct-25 13:13 182 4 gusting 8 24.4
2014-Oct-25 13:03 183 4 gusting 7 24.4
2014-Oct-25 12:53 237 5 gusting 8 24.4
2014-Oct-25 12:43 276 0 gusting 2 25.0
2014-Oct-25 12:33 159 0 gusting 7 23.9
2014-Oct-25 12:13 131 3 gusting 7 23.9
2014-Oct-25 12:03 163 4 gusting 7 23.9
2014-Oct-25 11:33 119 1 gusting 4 23.9
2014-Oct-25 11:23 126 0 gusting 2 23.9
2014-Oct-25 10:43 125 0 gusting 2 23.3
2014-Oct-25 10:23 126 0 gusting 4 23.3
2014-Oct-25 10:13 120 1 gusting 4 23.3
2014-Oct-25 10:03 108 0 gusting 1 22.8
2014-Oct-25 09:53 108 0 gusting 4 22.2
2014-Oct-25 09:33 155 0 gusting 2 22.2
2014-Oct-25 08:43 155 21.7
2014-Oct-25 08:33 155 21.7
2014-Oct-25 08:03 155 21.1
2014-Oct-25 07:53 155 20.6
2014-Oct-25 07:43 155 20.0
2014-Oct-25 07:03 155 16.7
2014-Oct-25 06:23 155 16.1
2014-Oct-25 06:03 155 16.1
2014-Oct-25 05:53 155 16.1
2014-Oct-25 05:43 155 16.1
2014-Oct-25 05:33 155 16.1
2014-Oct-25 05:23 155 16.7
2014-Oct-25 05:13 155 16.7
2014-Oct-25 05:03 155 16.1
2014-Oct-25 04:43 155 16.1
2014-Oct-25 04:33 155 0 gusting 2 16.1
2014-Oct-25 04:03 155 16.7
2014-Oct-25 03:23 155 16.7
2014-Oct-25 03:13 155 1 gusting 2 16.1
2014-Oct-25 02:53 155 16.1
2014-Oct-25 02:43 155 16.1
2014-Oct-25 02:13 155 17.2
2014-Oct-25 02:03 155 1 gusting 2 16.7
2014-Oct-25 01:53 155 0 gusting 2 16.7
2014-Oct-25 01:43 155 16.7
2014-Oct-25 01:23 155 1 gusting 2 17.2
2014-Oct-25 00:53 155 1 gusting 2 17.2
2014-Oct-25 00:43 155 0 gusting 2 17.2
2014-Oct-25 00:33 155 0 gusting 2 16.7
2014-Oct-25 00:13 155 1 gusting 2 17.2
2014-Oct-25 00:03 155 17.2
2014-Oct-24 23:43 155 16.7
2014-Oct-24 23:13 155 17.8
2014-Oct-24 23:03 155 17.8
2014-Oct-24 22:33 155 0 gusting 1 17.8
2014-Oct-24 22:03 155 0 gusting 2 18.3
2014-Oct-24 21:53 155 1 gusting 2 17.8
2014-Oct-24 21:43 155 17.2
2014-Oct-24 21:13 154 1 gusting 2 18.3
2014-Oct-24 21:03 155 1 gusting 2 17.8
2014-Oct-24 20:53 155 17.8
2014-Oct-24 20:43 155 1 gusting 2 17.8
2014-Oct-24 20:23 155 17.8
2014-Oct-24 20:03 155 17.8
2014-Oct-24 19:53 155 17.8
2014-Oct-24 19:43 155 18.3
2014-Oct-24 19:33 155 17.8
2014-Oct-24 18:53 155 18.3
2014-Oct-24 18:43 154 1 gusting 2 18.3
2014-Oct-24 18:33 154 18.3
2014-Oct-24 18:03 154 0 gusting 1 18.9
2014-Oct-24 17:33 153 19.4
2014-Oct-24 17:23 153 20.0
2014-Oct-24 17:13 153 20.6
2014-Oct-24 17:03 153 20.6
2014-Oct-24 16:13 153 0 gusting 5 21.7
2014-Oct-24 16:03 153 2 gusting 4 22.2
2014-Oct-24 15:53 154 0 gusting 5 22.8
2014-Oct-24 15:33 155 1 gusting 2 23.3
2014-Oct-24 15:13 155 1 gusting 4 23.3
2014-Oct-24 15:03 155 0 gusting 5 23.3
2014-Oct-24 14:53 153 2 gusting 5 23.3
2014-Oct-24 14:03 140 0 gusting 2 23.9
2014-Oct-24 13:53 142 2 gusting 5 24.4
2014-Oct-24 13:33 164 0 gusting 2 24.4
2014-Oct-24 12:53 159 2 gusting 4 23.3
2014-Oct-24 12:43 160 0 gusting 4 23.3
2014-Oct-24 12:33 160 1 gusting 4 23.3
2014-Oct-24 12:23 167 1 gusting 4 23.3
2014-Oct-24 12:13 191 2 gusting 4 23.3
2014-Oct-24 12:03 192 1 gusting 6 23.3
2014-Oct-24 11:53 235 2 gusting 6 23.3
2014-Oct-24 11:43 136 2 gusting 5 23.3
2014-Oct-24 11:23 138 2 gusting 5 23.3
2014-Oct-24 11:13 123 1 gusting 4 22.8
2014-Oct-24 11:03 122 1 gusting 4 22.8
2014-Oct-24 10:43 146 1 gusting 4 23.3
2014-Oct-24 10:13 137 1 gusting 2 22.2
2014-Oct-24 10:03 137 0 gusting 4 21.7
2014-Oct-24 09:43 116 0 gusting 2 21.7
2014-Oct-24 09:23 116 1 gusting 4 21.1
2014-Oct-24 09:13 096 2 gusting 4 21.1
2014-Oct-24 09:03 305 0 gusting 2 21.1
2014-Oct-24 08:43 309 0 gusting 2 22.2
2014-Oct-24 08:33 309 22.2
2014-Oct-24 08:23 307 21.1
2014-Oct-24 08:13 308 20.0
2014-Oct-24 08:03 309 19.4
2014-Oct-24 07:53 308 0 gusting 1 18.9
2014-Oct-24 07:43 307 0 gusting 2 18.9
2014-Oct-24 07:33 308 18.9
2014-Oct-24 07:23 309 18.3
2014-Oct-24 07:03 308 16.7
2014-Oct-24 06:33 308 1 gusting 2 14.4
2014-Oct-24 06:23 307 14.4
2014-Oct-24 06:13 307 14.4
2014-Oct-24 05:23 308 13.9
2014-Oct-24 05:13 307 13.9
2014-Oct-24 05:03 308 14.4
2014-Oct-24 04:23 308 15.6
2014-Oct-24 04:03 307 0 gusting 2 16.7
2014-Oct-24 03:53 308 3 gusting 5 16.1
2014-Oct-24 03:43 15.6
2014-Oct-24 03:13 15.6
2014-Oct-24 03:03 16.1
2014-Oct-24 02:53 15.0
2014-Oct-24 02:33 15.0
2014-Oct-24 02:03 15.0
2014-Oct-24 01:43 15.0
2014-Oct-24 01:33 15.0
2014-Oct-24 01:23 300 15.0
2014-Oct-24 01:13 299 15.0
2014-Oct-24 01:03 300 15.6
2014-Oct-24 00:53 299 16.1
2014-Oct-24 00:33 299 15.6
2014-Oct-23 23:53 300 16.1
2014-Oct-23 23:33 299 0 gusting 1 16.1
2014-Oct-23 22:53 302 17.2
2014-Oct-23 22:33 299 2 gusting 4 17.8
2014-Oct-23 22:13 265 0 gusting 2 17.2
2014-Oct-23 21:53 265 1 gusting 4 17.8
2014-Oct-23 21:43 264 4 gusting 4 17.8
2014-Oct-23 21:33 304 2 gusting 4 17.8
2014-Oct-23 21:23 298 17.2
2014-Oct-23 21:13 298 17.8
2014-Oct-23 21:03 298 0 gusting 1 17.8
2014-Oct-23 20:53 298 17.8
2014-Oct-23 20:43 298 3 gusting 5 17.8
2014-Oct-23 20:13 288 17.8
2014-Oct-23 20:03 288 18.3
2014-Oct-23 19:53 287 18.3
2014-Oct-23 19:23 287 0 gusting 2 18.9
2014-Oct-23 19:13 288 2 gusting 4 19.4
2014-Oct-23 19:03 265 2 gusting 2 18.3
2014-Oct-23 18:53 264 1 gusting 2 18.3
2014-Oct-23 18:03 264 0 gusting 1 18.3
2014-Oct-23 17:43 264 0 gusting 2 18.9
2014-Oct-23 17:33 265 18.9
2014-Oct-23 17:23 265 0 gusting 2 20.0
2014-Oct-23 17:13 265 20.0